createdAt,value
2019-04-04T16:10:26.662Z,99707.66
2019-04-04T16:12:58.245Z,99710.44
2019-04-04T16:15:30.923Z,99704.61
2019-04-04T16:18:02.346Z,99707.39
2019-04-04T16:20:33.802Z,99697.80
2019-04-04T16:23:05.993Z,99706.10
2019-04-04T16:25:38.618Z,99710.32
2019-04-04T16:28:11.226Z,99710.98
2019-04-04T16:30:43.326Z,99712.03
2019-04-04T16:33:16.469Z,99717.50
2019-04-04T16:35:48.054Z,99711.47
2019-04-04T16:38:22.713Z,99709.13
2019-04-04T16:41:00.507Z,99714.76
2019-04-04T16:43:33.341Z,99711.56
2019-04-04T16:46:05.503Z,99714.94
2019-04-04T16:48:37.262Z,99717.73
2019-04-04T16:51:09.657Z,99726.19
2019-04-04T16:53:42.104Z,99721.38
2019-04-04T16:56:13.973Z,99724.27
2019-04-04T16:58:46.439Z,99724.63
2019-04-04T17:01:18.166Z,99726.13
2019-04-04T17:04:00.942Z,99729.45
2019-04-04T17:06:22.537Z,99731.07
2019-04-04T17:08:55.003Z,99733.33
2019-04-04T17:11:26.696Z,99724.89
2019-04-04T17:13:58.118Z,99738.22
2019-04-04T17:16:29.793Z,99734.58
2019-04-04T17:19:01.294Z,99743.29
2019-04-04T17:21:32.756Z,99734.23
2019-04-04T17:24:05.003Z,99744.15
2019-04-04T17:26:36.431Z,99743.55
2019-04-04T17:29:07.930Z,99749.30
2019-04-04T17:31:39.990Z,99744.56
2019-04-04T17:34:11.647Z,99749.52
2019-04-04T17:36:43.327Z,99743.55
2019-04-04T17:39:15.064Z,99750.19
2019-04-04T17:41:49.533Z,99742.81
2019-04-04T17:44:21.042Z,99752.08
2019-04-04T17:46:52.748Z,99744.56
2019-04-04T17:49:24.252Z,99752.44
2019-04-04T17:51:57.112Z,99745.09
2019-04-04T17:54:29.054Z,99749.57
2019-04-04T17:57:00.649Z,99751.77
2019-04-04T17:59:32.508Z,99750.55
2019-04-04T18:02:04.162Z,99753.64
2019-04-04T18:04:47.594Z,99753.35
2019-04-04T18:07:08.811Z,99753.39
2019-04-04T18:09:40.453Z,99756.03
2019-04-04T18:12:12.206Z,99758.19
2019-04-04T18:14:44.039Z,99754.67
2019-04-04T18:17:15.728Z,99749.64
2019-04-04T18:19:47.386Z,99761.83
2019-04-04T18:22:20.803Z,99756.15
2019-04-04T18:24:51.935Z,99754.95
2019-04-04T18:27:23.492Z,99758.05
2019-04-04T18:29:55.029Z,99758.23
2019-04-04T18:32:26.480Z,99759.33
2019-04-04T18:34:57.929Z,99767.31
2019-04-04T18:37:30.046Z,99767.18
2019-04-04T18:40:01.447Z,99769.37
2019-04-04T18:42:34.759Z,99761.19
2019-04-04T18:45:06.929Z,99766.27
2019-04-04T18:50:29.697Z,99768.32
2019-04-04T18:53:01.640Z,99766.31
2019-04-04T18:55:33.896Z,99768.80
2019-04-04T18:58:05.242Z,99771.27
2019-04-04T19:00:37.261Z,99771.58
2019-04-04T19:03:08.798Z,99768.48
2019-04-04T19:05:40.435Z,99764.52
2019-04-04T19:08:12.065Z,99762.53
2019-04-04T19:10:43.422Z,99765.14
2019-04-04T19:13:15.132Z,99763.59
2019-04-04T19:15:47.282Z,99764.08
2019-04-04T19:18:18.792Z,99760.23
2019-04-04T19:20:50.340Z,99759.94
2019-04-04T19:23:22.234Z,99765.31
2019-04-04T19:25:56.316Z,99755.03
2019-04-04T19:28:27.768Z,99757.66
2019-04-04T19:30:59.528Z,99763.65
2019-04-04T19:33:32.311Z,99762.13
2019-04-04T19:36:04.185Z,99757.52
2019-04-04T19:38:36.380Z,99759.38
2019-04-04T19:41:09.115Z,99756.31
2019-04-04T19:43:40.696Z,99757.53
2019-04-04T19:46:12.112Z,99758.93
2019-04-04T19:48:43.766Z,99764.78
2019-04-04T19:51:15.328Z,99765.73
2019-04-04T19:53:47.078Z,99762.50
2019-04-04T19:56:18.775Z,99759.27
2019-04-04T19:58:50.386Z,99764.03
2019-04-04T20:01:21.841Z,99763.59
2019-04-04T20:03:54.615Z,99762.83
2019-04-04T20:06:25.945Z,99757.30
2019-04-04T20:08:59.162Z,99755.92
2019-04-04T20:11:31.200Z,99759.00
2019-04-04T20:14:03.715Z,99759.48
2019-04-04T20:16:35.047Z,99768.22
2019-04-04T20:19:06.710Z,99761.61
2019-04-04T20:21:38.106Z,99767.31
2019-04-04T20:24:10.017Z,99768.09
2019-04-04T20:26:41.606Z,99767.78
2019-04-04T20:29:13.159Z,99775.02
2019-04-04T20:31:46.271Z,99770.09
2019-04-04T20:34:17.903Z,99772.09
2019-04-04T20:36:49.554Z,99770.88
2019-04-04T20:39:23.154Z,99772.41
2019-04-04T20:41:54.679Z,99771.80
2019-04-04T20:44:26.555Z,99776.56
2019-04-04T20:46:57.975Z,99769.51
2019-04-04T20:49:29.761Z,99776.12
2019-04-04T20:52:02.210Z,99776.56
2019-04-04T20:54:33.665Z,99776.55
2019-04-04T20:57:05.234Z,99780.23
2019-04-04T20:59:36.863Z,99784.53
2019-04-04T21:02:08.624Z,99784.83
2019-04-04T21:04:40.175Z,99782.22
2019-04-04T21:07:11.421Z,99780.05
2019-04-04T21:09:42.795Z,99774.64
2019-04-04T21:12:14.630Z,99777.55
2019-04-04T21:14:46.425Z,99777.84
2019-04-04T21:17:17.942Z,99780.59
2019-04-04T21:19:49.318Z,99777.50
2019-04-04T21:22:27.285Z,99776.39
2019-04-04T21:24:53.720Z,99779.14
2019-04-04T21:27:25.177Z,99780.50
2019-04-04T21:29:56.686Z,99787.39
2019-04-04T21:32:28.212Z,99785.98
2019-04-04T21:34:59.832Z,99792.70
2019-04-04T21:37:31.080Z,99787.47
2019-04-04T21:40:02.356Z,99792.53
2019-04-04T21:42:34.298Z,99793.42
2019-04-04T21:45:07.002Z,99791.42
2019-04-04T21:47:38.166Z,99792.80
2019-04-04T21:50:10.166Z,99791.25
2019-04-04T21:52:42.349Z,99788.48
2019-04-04T21:55:13.685Z,99786.50
2019-04-04T21:57:45.431Z,99785.73
2019-04-04T22:00:19.463Z,99783.14
2019-04-04T22:02:52.436Z,99783.91
2019-04-04T22:05:24.245Z,99781.59
2019-04-04T22:07:56.685Z,99779.00
2019-04-04T22:10:28.938Z,99779.89
2019-04-04T22:13:01.443Z,99774.38
2019-04-04T22:15:34.309Z,99775.75
2019-04-04T22:18:05.706Z,99779.89
2019-04-04T22:20:37.195Z,99775.15
2019-04-04T22:23:08.781Z,99770.72
2019-04-04T22:25:40.148Z,99775.17
2019-04-04T22:28:12.003Z,99772.72
2019-04-04T22:30:44.531Z,99777.04
2019-04-04T22:33:15.795Z,99776.41
2019-04-04T22:35:47.650Z,99768.46
2019-04-04T22:38:18.978Z,99771.97
2019-04-04T22:40:51.550Z,99780.25
2019-04-04T22:43:23.214Z,99769.84
2019-04-04T22:45:54.788Z,99772.90
2019-04-04T22:48:26.420Z,99772.27
2019-04-04T22:50:57.665Z,99773.50
2019-04-04T22:53:29.104Z,99765.97
2019-04-04T22:56:01.303Z,99770.41
2019-04-04T22:58:32.626Z,99762.67
2019-04-04T23:01:04.176Z,99770.33
2019-04-04T23:03:35.666Z,99772.77
2019-04-04T23:06:07.077Z,99767.98
2019-04-04T23:08:38.324Z,99767.66
2019-04-04T23:11:10.598Z,99769.04
2019-04-04T23:13:44.103Z,99760.45
2019-04-04T23:16:17.995Z,99766.72
2019-04-04T23:18:49.551Z,99763.33
2019-04-04T23:21:21.164Z,99764.53
2019-04-04T23:23:52.466Z,99763.91
2019-04-04T23:26:24.049Z,99762.98
2019-04-04T23:28:56.991Z,99764.48
2019-04-04T23:31:28.447Z,99765.08
2019-04-04T23:34:00.607Z,99759.25
2019-04-04T23:36:35.219Z,99762.89
2019-04-04T23:39:07.189Z,99763.64
2019-04-04T23:41:38.354Z,99768.34
2019-04-04T23:44:09.682Z,99762.38
2019-04-04T23:46:41.103Z,99766.34
2019-04-04T23:49:12.511Z,99765.45
2019-04-04T23:51:44.751Z,99768.23
2019-04-04T23:54:17.118Z,99767.49
2019-04-04T23:56:48.417Z,99769.36
2019-04-04T23:59:19.638Z,99769.50
